createdAt,value
2022-10-02T00:01:24.558Z,7.40
2022-10-02T00:07:09.427Z,8.70
2022-10-02T00:10:01.661Z,7.80
2022-10-02T00:12:56.025Z,8.70
2022-10-02T00:15:46.090Z,7.90
2022-10-02T00:18:36.981Z,8.00
2022-10-02T00:22:02.907Z,8.50
2022-10-02T00:24:58.348Z,7.70
2022-10-02T00:28:06.707Z,7.60
2022-10-02T00:31:11.433Z,7.60
2022-10-02T00:34:15.262Z,8.20
2022-10-02T00:37:10.023Z,7.60
2022-10-02T00:40:17.628Z,8.50
2022-10-02T00:43:13.667Z,7.80
2022-10-02T00:49:31.906Z,6.80
2022-10-02T00:52:45.501Z,7.70
2022-10-02T00:55:56.025Z,7.40
2022-10-02T00:59:02.693Z,7.30
2022-10-02T01:01:55.494Z,7.40
2022-10-02T01:04:47.513Z,7.70
2022-10-02T01:07:39.969Z,7.20
2022-10-02T01:10:30.333Z,7.00
2022-10-02T01:13:20.362Z,7.60
2022-10-02T01:16:13.616Z,8.00
2022-10-02T01:19:03.670Z,7.00
2022-10-02T01:21:58.820Z,7.30
2022-10-02T01:24:50.532Z,7.40
2022-10-02T01:27:40.594Z,7.20
2022-10-02T01:30:30.858Z,7.20
2022-10-02T01:33:21.189Z,7.30
2022-10-02T01:36:11.674Z,6.90
2022-10-02T01:39:01.896Z,7.40
2022-10-02T01:41:54.967Z,6.70
2022-10-02T01:44:45.060Z,7.20
2022-10-02T01:47:41.381Z,6.80
2022-10-02T01:50:38.610Z,6.60
2022-10-02T01:53:33.055Z,6.10
2022-10-02T01:56:27.683Z,6.80
2022-10-02T01:59:25.533Z,7.00
2022-10-02T02:02:24.062Z,7.30
2022-10-02T02:05:19.835Z,6.70
2022-10-02T02:08:13.821Z,7.10
2022-10-02T02:11:11.272Z,6.70
2022-10-02T02:14:04.017Z,6.80
2022-10-02T02:16:56.816Z,6.60
2022-10-02T02:19:48.438Z,7.10
2022-10-02T02:22:41.140Z,6.80
2022-10-02T02:25:33.750Z,6.40
2022-10-02T02:28:23.819Z,7.40
2022-10-02T02:31:14.566Z,6.30
2022-10-02T02:34:07.646Z,7.00
2022-10-02T02:37:02.710Z,6.90
2022-10-02T02:39:53.843Z,6.10
2022-10-02T02:42:46.225Z,6.50
2022-10-02T02:45:38.869Z,6.70
2022-10-02T02:48:31.328Z,6.90
2022-10-02T02:51:23.735Z,6.30
2022-10-02T02:54:17.762Z,6.50
2022-10-02T02:57:07.998Z,6.50
2022-10-02T02:59:58.309Z,6.00
2022-10-02T03:02:50.003Z,5.10
2022-10-02T03:05:43.519Z,6.00
2022-10-02T03:08:35.928Z,6.00
2022-10-02T03:11:34.231Z,6.20
2022-10-02T03:14:40.112Z,6.30
2022-10-02T03:20:31.036Z,6.00
2022-10-02T03:23:27.456Z,5.60
2022-10-02T03:26:19.801Z,6.00
2022-10-02T03:29:16.589Z,5.50
2022-10-02T03:32:08.096Z,5.80
2022-10-02T03:34:58.364Z,5.30
2022-10-02T03:37:50.760Z,6.40
2022-10-02T03:40:40.806Z,6.50
2022-10-02T03:43:31.491Z,6.00
2022-10-02T03:46:21.554Z,5.90
2022-10-02T03:49:11.849Z,6.50
2022-10-02T03:52:02.591Z,5.50
2022-10-02T03:54:57.208Z,5.10
2022-10-02T03:57:47.300Z,5.10
2022-10-02T04:00:38.889Z,6.80
2022-10-02T04:03:32.941Z,6.00
2022-10-02T04:06:26.642Z,5.40
2022-10-02T04:09:20.610Z,5.40
2022-10-02T04:12:12.841Z,5.20
2022-10-02T04:15:06.170Z,5.40
2022-10-02T04:17:59.594Z,6.20
2022-10-02T04:20:52.432Z,6.10
2022-10-02T04:23:47.954Z,5.70
2022-10-02T04:26:40.844Z,6.00
2022-10-02T04:29:38.328Z,5.50
2022-10-02T04:32:30.921Z,5.00
2022-10-02T04:35:28.289Z,6.10
2022-10-02T04:38:33.545Z,7.70
2022-10-02T04:41:39.762Z,6.40
2022-10-02T04:44:44.012Z,6.50
2022-10-02T04:47:47.230Z,6.30
2022-10-02T04:50:46.429Z,6.20
2022-10-02T04:53:53.971Z,6.10
2022-10-02T04:57:09.493Z,6.60
2022-10-02T05:00:10.726Z,7.80
2022-10-02T05:03:27.906Z,7.20
2022-10-02T05:06:30.472Z,7.30
2022-10-02T05:09:28.835Z,8.60
2022-10-02T05:12:41.205Z,7.70
2022-10-02T05:16:01.667Z,8.20
2022-10-02T05:19:12.792Z,8.80
2022-10-02T05:22:46.474Z,8.30
2022-10-02T05:26:00.302Z,8.70
2022-10-02T05:29:17.099Z,10.70
2022-10-02T05:32:24.693Z,10.60
2022-10-02T05:35:31.332Z,10.50
2022-10-02T05:38:38.289Z,10.40
2022-10-02T05:41:36.930Z,11.00
2022-10-02T05:44:28.522Z,11.10
2022-10-02T05:47:22.503Z,13.20
2022-10-02T05:50:16.700Z,11.90
2022-10-02T05:53:15.483Z,12.90
2022-10-02T05:56:09.083Z,12.70
2022-10-02T05:59:02.811Z,13.70
2022-10-02T06:01:53.867Z,14.40
2022-10-02T06:04:53.773Z,13.70
2022-10-02T06:07:45.185Z,14.00
2022-10-02T06:10:40.782Z,14.30
2022-10-02T06:13:35.042Z,15.70
2022-10-02T06:16:30.083Z,15.70
2022-10-02T06:19:23.470Z,15.20
2022-10-02T06:22:15.928Z,15.40
2022-10-02T06:25:09.103Z,16.40
2022-10-02T06:28:02.668Z,15.40
2022-10-02T06:30:56.862Z,16.60
2022-10-02T06:33:46.906Z,16.20
2022-10-02T06:36:49.569Z,14.80
2022-10-02T06:40:02.293Z,14.80
2022-10-02T06:42:58.215Z,13.70
2022-10-02T06:45:56.008Z,13.20
2022-10-02T06:48:52.423Z,12.40
2022-10-02T06:51:51.467Z,10.60
2022-10-02T06:55:04.477Z,9.50
2022-10-02T06:58:08.376Z,10.20
2022-10-02T07:01:05.889Z,8.80
2022-10-02T07:04:11.818Z,9.70
2022-10-02T07:07:24.709Z,10.40
2022-10-02T07:10:22.204Z,10.00
2022-10-02T07:13:40.874Z,8.90
2022-10-02T07:16:47.046Z,9.90
2022-10-02T07:19:57.647Z,9.00
2022-10-02T07:22:59.796Z,9.10
2022-10-02T07:26:03.177Z,8.50
2022-10-02T07:28:57.367Z,10.80
2022-10-02T07:31:56.921Z,13.70
2022-10-02T07:34:53.374Z,9.70
2022-10-02T07:37:49.078Z,9.20
2022-10-02T07:40:46.712Z,16.90
2022-10-02T07:43:45.871Z,15.70
2022-10-02T07:46:43.005Z,13.60
2022-10-02T07:49:42.917Z,11.70
2022-10-02T07:52:39.225Z,10.00
2022-10-02T07:55:29.505Z,13.30
2022-10-02T07:58:30.603Z,10.70
2022-10-02T08:01:24.748Z,10.00
2022-10-02T08:04:18.582Z,12.60
2022-10-02T08:07:08.601Z,10.60
2022-10-02T08:09:59.057Z,10.80
2022-10-02T08:12:55.378Z,11.20
2022-10-02T08:15:46.847Z,13.40
2022-10-02T08:18:38.578Z,10.20
2022-10-02T08:21:30.389Z,11.20
2022-10-02T08:24:23.493Z,11.60
2022-10-02T08:27:16.685Z,12.60
2022-10-02T08:30:11.693Z,11.00
2022-10-02T08:33:01.839Z,10.40
2022-10-02T08:36:09.097Z,10.20
2022-10-02T08:39:05.009Z,10.30
2022-10-02T08:42:39.393Z,11.20
2022-10-02T08:45:53.807Z,10.60
2022-10-02T08:49:39.229Z,10.70
2022-10-02T08:53:16.631Z,10.20
2022-10-02T08:56:20.245Z,8.60
2022-10-02T09:00:00.676Z,11.30
2022-10-02T09:03:38.597Z,8.00
2022-10-02T09:07:28.802Z,10.80
2022-10-02T09:10:52.016Z,9.70
2022-10-02T09:14:10.018Z,11.10
2022-10-02T09:17:19.747Z,8.00
2022-10-02T09:20:48.671Z,8.10
2022-10-02T09:24:09.276Z,8.40
2022-10-02T09:27:38.725Z,9.40
2022-10-02T09:31:06.514Z,8.40
2022-10-02T09:34:29.237Z,7.70
2022-10-02T09:37:40.705Z,7.70
2022-10-02T09:41:13.179Z,7.40
2022-10-02T09:44:45.511Z,8.30
2022-10-02T09:48:29.744Z,6.80
2022-10-02T09:52:22.974Z,9.00
2022-10-02T09:56:06.357Z,8.40
2022-10-02T09:59:41.701Z,7.90
2022-10-02T10:03:26.557Z,7.50
2022-10-02T10:06:57.608Z,8.20
2022-10-02T10:10:11.772Z,8.30
2022-10-02T10:13:34.830Z,7.10
2022-10-02T10:16:54.392Z,9.60
2022-10-02T10:20:23.712Z,8.50
2022-10-02T10:23:35.902Z,7.40
2022-10-02T10:27:19.076Z,9.20
2022-10-02T10:30:51.200Z,8.10
2022-10-02T10:34:12.119Z,7.50
2022-10-02T10:37:20.701Z,8.70
2022-10-02T10:40:25.150Z,8.20
2022-10-02T10:44:07.659Z,8.90
2022-10-02T10:47:30.727Z,9.30
2022-10-02T10:50:50.237Z,7.30
2022-10-02T10:54:09.590Z,7.60
2022-10-02T10:57:03.885Z,8.20
2022-10-02T11:00:18.126Z,7.70
2022-10-02T11:04:00.032Z,7.60
2022-10-02T11:07:22.899Z,7.60
2022-10-02T11:10:29.906Z,8.60
2022-10-02T11:13:43.688Z,9.40
2022-10-02T11:17:01.500Z,10.30
2022-10-02T11:20:14.890Z,9.80
2022-10-02T11:23:31.076Z,9.00
2022-10-02T11:26:55.833Z,9.70
2022-10-02T11:30:05.054Z,12.80
2022-10-02T11:33:26.557Z,9.10
2022-10-02T11:36:41.108Z,8.20
2022-10-02T11:40:00.402Z,10.90
2022-10-02T11:43:02.859Z,9.20
2022-10-02T11:46:12.531Z,8.30
2022-10-02T11:49:26.521Z,8.20
2022-10-02T11:53:04.043Z,7.90
2022-10-02T11:56:05.715Z,8.40
2022-10-02T11:59:07.627Z,7.00
2022-10-02T12:02:01.134Z,8.10
2022-10-02T12:05:03.917Z,7.90
2022-10-02T12:08:01.034Z,8.90
2022-10-02T12:10:55.344Z,7.20
2022-10-02T12:14:02.702Z,8.20
2022-10-02T12:17:06.336Z,8.60
2022-10-02T12:20:22.940Z,9.00
2022-10-02T12:23:42.538Z,9.90
2022-10-02T12:26:59.073Z,10.40
2022-10-02T12:30:09.555Z,9.60
2022-10-02T12:33:18.287Z,7.30
2022-10-02T12:36:33.568Z,8.70
2022-10-02T12:39:35.261Z,7.60
2022-10-02T12:43:34.082Z,9.70
2022-10-02T12:46:37.871Z,10.60
2022-10-02T12:49:36.673Z,6.60
2022-10-02T12:53:20.335Z,10.30
2022-10-02T12:56:48.619Z,8.60
2022-10-02T12:59:42.121Z,7.80
2022-10-02T13:03:00.881Z,7.50
2022-10-02T13:06:46.037Z,8.40
2022-10-02T13:09:44.193Z,7.90
2022-10-02T13:12:50.500Z,7.70
2022-10-02T13:15:45.828Z,7.80
2022-10-02T13:18:46.572Z,8.40
2022-10-02T13:21:48.118Z,7.70
2022-10-02T13:24:49.856Z,11.00
2022-10-02T13:27:48.954Z,8.70
2022-10-02T13:30:41.103Z,8.30
2022-10-02T13:33:52.455Z,7.00
2022-10-02T13:36:55.187Z,9.00
2022-10-02T13:40:17.597Z,7.90
2022-10-02T13:43:49.643Z,6.90
2022-10-02T13:47:23.650Z,7.80
2022-10-02T13:50:23.924Z,7.30
2022-10-02T13:53:30.905Z,6.00
2022-10-02T13:56:38.719Z,7.80
2022-10-02T13:59:47.398Z,6.90
2022-10-02T14:02:50.877Z,7.10
2022-10-02T14:05:45.534Z,8.60
2022-10-02T14:08:53.719Z,6.80
2022-10-02T14:11:55.753Z,8.60
2022-10-02T14:15:06.318Z,7.40
2022-10-02T14:18:34.749Z,8.20
2022-10-02T14:21:30.771Z,8.50
2022-10-02T14:25:00.491Z,8.20
2022-10-02T14:28:33.226Z,9.10
2022-10-02T14:31:50.379Z,7.10
2022-10-02T14:34:57.681Z,7.50
2022-10-02T14:38:34.357Z,7.60
2022-10-02T14:41:47.142Z,6.90
2022-10-02T14:45:04.644Z,6.40
2022-10-02T14:48:10.771Z,6.70
2022-10-02T14:51:21.890Z,7.50
2022-10-02T14:54:34.786Z,9.80
2022-10-02T14:57:36.545Z,7.40
2022-10-02T15:00:26.964Z,8.00
2022-10-02T15:03:31.661Z,6.30
2022-10-02T15:06:50.493Z,6.00
2022-10-02T15:09:56.917Z,6.60
2022-10-02T15:12:50.505Z,6.20
2022-10-02T15:15:43.131Z,7.80
2022-10-02T15:18:41.412Z,6.90
2022-10-02T15:21:33.803Z,8.10
2022-10-02T15:24:33.282Z,8.90
2022-10-02T15:27:28.806Z,8.10
2022-10-02T15:30:21.032Z,8.80
2022-10-02T15:33:18.955Z,9.50
2022-10-02T15:36:23.858Z,10.40
2022-10-02T15:39:39.208Z,11.20
2022-10-02T15:42:49.776Z,11.40
2022-10-02T15:46:02.819Z,10.30
2022-10-02T15:49:06.537Z,10.60
2022-10-02T15:52:02.898Z,10.00
2022-10-02T15:55:00.678Z,12.00
2022-10-02T15:57:59.724Z,13.20
2022-10-02T16:01:12.781Z,18.10
2022-10-02T16:04:08.367Z,15.80
2022-10-02T16:07:51.010Z,17.10
2022-10-02T16:10:57.424Z,15.70
2022-10-02T16:13:53.625Z,15.40
2022-10-02T16:17:23.419Z,14.70
2022-10-02T16:20:59.076Z,16.60
2022-10-02T16:24:02.841Z,15.60
2022-10-02T16:27:19.936Z,14.40
2022-10-02T16:30:12.895Z,16.30
2022-10-02T16:33:20.857Z,17.00
2022-10-02T16:36:33.034Z,15.60
2022-10-02T16:39:45.732Z,16.10
2022-10-02T16:42:50.533Z,17.30
2022-10-02T16:45:59.257Z,17.40
2022-10-02T16:48:53.068Z,13.60
2022-10-02T16:51:50.944Z,14.60
2022-10-02T16:54:46.584Z,13.20
2022-10-02T16:57:54.753Z,14.90
2022-10-02T17:00:53.120Z,14.60
2022-10-02T17:03:46.317Z,14.40
2022-10-02T17:06:39.991Z,13.30
2022-10-02T17:09:38.755Z,14.30
2022-10-02T17:12:40.463Z,12.00
2022-10-02T17:15:38.452Z,14.70
2022-10-02T17:18:37.398Z,12.30
2022-10-02T17:21:31.438Z,13.30
2022-10-02T17:24:31.598Z,12.60
2022-10-02T17:27:36.409Z,11.20
2022-10-02T17:30:28.346Z,12.70
2022-10-02T17:33:21.676Z,13.00
2022-10-02T17:36:18.988Z,10.50
2022-10-02T17:39:21.130Z,10.20
2022-10-02T17:42:18.957Z,10.10
2022-10-02T17:45:28.505Z,10.10
2022-10-02T17:48:38.126Z,9.60
2022-10-02T17:51:52.243Z,9.10
2022-10-02T17:55:10.724Z,9.00
2022-10-02T17:58:06.733Z,8.70
2022-10-02T18:01:06.515Z,9.20
2022-10-02T18:04:07.273Z,9.20
2022-10-02T18:07:09.453Z,9.50
2022-10-02T18:10:10.011Z,8.60
2022-10-02T18:13:20.824Z,10.50
2022-10-02T18:16:31.962Z,8.40
2022-10-02T18:19:30.457Z,10.90
2022-10-02T18:22:44.846Z,9.60
2022-10-02T18:25:48.651Z,8.80
2022-10-02T18:29:10.036Z,9.10
2022-10-02T18:32:21.152Z,9.00
2022-10-02T18:35:47.554Z,10.50
2022-10-02T18:38:52.464Z,10.00
2022-10-02T18:41:55.958Z,9.50
2022-10-02T18:44:53.851Z,10.10
2022-10-02T18:47:49.219Z,10.40
2022-10-02T18:50:56.418Z,10.20
2022-10-02T18:54:06.173Z,10.10
2022-10-02T18:57:09.558Z,10.60
2022-10-02T19:00:12.985Z,9.90
2022-10-02T19:03:19.764Z,9.60
2022-10-02T19:06:14.138Z,9.20
2022-10-02T19:09:19.482Z,9.30
2022-10-02T19:12:23.819Z,8.60
2022-10-02T19:15:21.547Z,8.60
2022-10-02T19:18:19.325Z,8.20
2022-10-02T19:21:10.137Z,8.20
2022-10-02T19:24:04.535Z,8.20
2022-10-02T19:26:57.056Z,8.40
2022-10-02T19:29:49.681Z,8.50
2022-10-02T19:32:41.093Z,8.50
2022-10-02T19:35:33.188Z,8.60
2022-10-02T19:38:30.145Z,9.30
2022-10-02T19:41:21.359Z,8.50
2022-10-02T19:44:24.569Z,8.20
2022-10-02T19:47:19.833Z,8.90
2022-10-02T19:50:21.512Z,8.80
2022-10-02T19:53:23.251Z,8.60
2022-10-02T19:56:15.949Z,8.60
2022-10-02T19:59:10.716Z,8.40
2022-10-02T20:02:03.358Z,8.60
2022-10-02T20:04:55.543Z,8.60
2022-10-02T20:07:46.124Z,8.80
2022-10-02T20:10:38.106Z,8.80
2022-10-02T20:13:36.942Z,9.70
2022-10-02T20:16:46.102Z,8.50
2022-10-02T20:19:41.045Z,8.30
2022-10-02T20:22:33.867Z,10.20
2022-10-02T20:25:28.361Z,8.80
2022-10-02T20:28:21.211Z,8.20
2022-10-02T20:31:16.202Z,10.80
2022-10-02T20:34:12.398Z,10.20
2022-10-02T20:37:05.511Z,8.50
2022-10-02T20:40:02.580Z,10.10
2022-10-02T20:42:58.442Z,8.50
2022-10-02T20:45:59.299Z,9.00
2022-10-02T20:49:17.133Z,9.10
2022-10-02T20:52:34.244Z,8.90
2022-10-02T20:55:29.709Z,8.60
2022-10-02T20:58:40.826Z,9.60
2022-10-02T21:01:37.381Z,8.00
2022-10-02T21:05:02.570Z,9.30
2022-10-02T21:08:17.532Z,8.70
2022-10-02T21:11:25.224Z,9.30
2022-10-02T21:14:29.079Z,11.40
2022-10-02T21:17:50.067Z,9.50
2022-10-02T21:21:33.874Z,9.20
2022-10-02T21:25:11.457Z,8.30
2022-10-02T21:28:32.473Z,9.70
2022-10-02T21:32:04.415Z,8.90
2022-10-02T21:35:07.479Z,9.00
2022-10-02T21:38:31.795Z,10.10
2022-10-02T21:41:48.783Z,8.70
2022-10-02T21:48:55.606Z,10.00
2022-10-02T21:52:25.542Z,9.90
2022-10-02T21:55:51.410Z,11.00
2022-10-02T21:59:24.343Z,10.90
2022-10-02T22:03:09.828Z,9.00
2022-10-02T22:06:36.776Z,10.70
2022-10-02T22:09:41.970Z,9.40
2022-10-02T22:12:45.609Z,8.90
2022-10-02T22:15:43.674Z,10.10
2022-10-02T22:18:43.627Z,10.20
2022-10-02T22:21:59.677Z,10.00
2022-10-02T22:25:03.285Z,10.50
2022-10-02T22:28:27.310Z,10.90
2022-10-02T22:31:45.874Z,9.50
2022-10-02T22:34:40.295Z,10.60
2022-10-02T22:37:44.197Z,10.40
2022-10-02T22:40:47.965Z,9.50
2022-10-02T22:43:46.955Z,10.70
2022-10-02T22:46:43.880Z,10.70
2022-10-02T22:49:36.999Z,10.50
2022-10-02T22:52:30.240Z,10.50
2022-10-02T22:55:22.924Z,9.10
2022-10-02T22:58:15.849Z,9.20
2022-10-02T23:01:12.762Z,10.10
2022-10-02T23:04:06.641Z,9.80
2022-10-02T23:07:01.674Z,9.80
2022-10-02T23:09:57.025Z,9.80
2022-10-02T23:12:56.794Z,9.10
2022-10-02T23:16:01.120Z,10.00
2022-10-02T23:18:54.455Z,8.90
2022-10-02T23:21:47.148Z,9.50
2022-10-02T23:24:43.363Z,9.30
2022-10-02T23:30:29.229Z,9.40
2022-10-02T23:33:24.983Z,9.40
2022-10-02T23:36:24.178Z,9.80
2022-10-02T23:39:19.200Z,9.60
2022-10-02T23:42:14.325Z,9.10
2022-10-02T23:45:09.686Z,9.80
2022-10-02T23:48:02.320Z,9.10
2022-10-02T23:50:58.974Z,8.40
2022-10-02T23:54:23.005Z,9.50
2022-10-02T23:57:49.777Z,9.40
